createdAt,value
2023-05-09T00:00:55.462Z,5.71429
2023-05-09T00:01:55.735Z,5.5
2023-05-09T00:02:56.026Z,5.42857
2023-05-09T00:03:56.285Z,5.21429
2023-05-09T00:04:56.490Z,5.64286
2023-05-09T00:05:56.742Z,5.21429
2023-05-09T00:06:56.963Z,5.71429
2023-05-09T00:07:57.206Z,5.71429
2023-05-09T00:08:57.509Z,5.85714
2023-05-09T00:09:57.735Z,5.85714
2023-05-09T00:10:57.978Z,5.42857
2023-05-09T00:11:58.298Z,5.5
2023-05-09T00:12:58.643Z,5.92857
2023-05-09T00:13:58.977Z,5.85714
2023-05-09T00:14:59.188Z,6.35714
2023-05-09T00:15:59.557Z,5.71429
2023-05-09T00:16:59.889Z,5.64286
2023-05-09T00:18:00.181Z,5.35714
2023-05-09T00:19:00.455Z,5.42857
2023-05-09T00:20:00.837Z,5.85714
2023-05-09T00:21:01.136Z,5.71429
2023-05-09T00:22:01.510Z,5.64286
2023-05-09T00:23:01.908Z,6
2023-05-09T00:24:02.156Z,5.42857
2023-05-09T00:25:02.533Z,5.42857
2023-05-09T00:26:02.891Z,5.71429
2023-05-09T00:27:03.201Z,5.64286
2023-05-09T00:28:03.530Z,5.71429
2023-05-09T00:29:03.777Z,6.35714
2023-05-09T00:30:04.099Z,5.85714
2023-05-09T00:31:04.436Z,5.35714
2023-05-09T00:32:04.710Z,5.64286
2023-05-09T00:33:05.221Z,5.71429
2023-05-09T00:34:05.471Z,5.92857
2023-05-09T00:35:05.852Z,5.64286
2023-05-09T00:36:06.253Z,5.64286
2023-05-09T00:37:06.606Z,5.64286
2023-05-09T00:38:06.936Z,5.5
2023-05-09T00:39:07.324Z,5.42857
2023-05-09T00:40:07.658Z,5.5
2023-05-09T00:41:08.055Z,5.92857
2023-05-09T00:42:08.448Z,5.64286
2023-05-09T00:43:08.807Z,5.42857
2023-05-09T00:44:09.192Z,5.14286
2023-05-09T00:45:09.475Z,5.85714
2023-05-09T00:46:10.058Z,5.64286
2023-05-09T00:47:10.440Z,5.85714
2023-05-09T00:48:11.058Z,5.92857
2023-05-09T00:49:11.353Z,5.5
2023-05-09T00:50:11.761Z,5.92857
2023-05-09T00:51:12.116Z,5.42857
2023-05-09T00:52:12.614Z,5.64286
2023-05-09T00:53:13.041Z,5.5
2023-05-09T00:54:13.568Z,5.85714
2023-05-09T00:55:14.351Z,5.92857
2023-05-09T00:56:14.583Z,5.71429
2023-05-09T00:57:15.008Z,5.35714
2023-05-09T00:58:15.370Z,5.35714
2023-05-09T00:59:16.955Z,5.42857
2023-05-09T01:00:16.247Z,5.5
2023-05-09T01:01:16.785Z,5.42857
2023-05-09T01:02:17.175Z,5.5
2023-05-09T01:03:17.584Z,5.35714
2023-05-09T01:04:17.840Z,5.64286
2023-05-09T01:05:18.204Z,5.14286
2023-05-09T01:06:18.753Z,5.64286
2023-05-09T01:07:19.216Z,5.64286
2023-05-09T01:08:19.691Z,5.35714
2023-05-09T01:09:20.282Z,5.64286
2023-05-09T01:10:20.690Z,5.14286
2023-05-09T01:11:21.274Z,5.42857
2023-05-09T01:12:21.721Z,5.21429
2023-05-09T01:13:22.357Z,5.35714
2023-05-09T01:14:22.643Z,5.64286
2023-05-09T01:15:23.192Z,5.5
2023-05-09T01:16:23.884Z,5.85714
2023-05-09T01:17:24.116Z,5.5
2023-05-09T01:18:24.531Z,5.5
2023-05-09T01:19:25.127Z,5.35714
2023-05-09T01:20:25.683Z,5.21429
2023-05-09T01:21:26.101Z,5.35714
2023-05-09T01:22:26.591Z,5.64286
2023-05-09T01:23:26.965Z,6
2023-05-09T01:24:27.547Z,5.14286
2023-05-09T01:25:28.004Z,5.21429
2023-05-09T01:26:28.452Z,5.14286
2023-05-09T01:27:29.011Z,5.21429
2023-05-09T01:28:29.518Z,5.5
2023-05-09T01:29:30.111Z,5.35714
2023-05-09T01:30:30.711Z,5.5
2023-05-09T01:31:31.376Z,5.21429
2023-05-09T01:32:31.976Z,5.42857
2023-05-09T01:33:32.531Z,5.14286
2023-05-09T01:34:33.186Z,5.42857
2023-05-09T01:35:33.708Z,5
2023-05-09T01:36:34.230Z,5.64286
2023-05-09T01:37:34.987Z,5.35714
2023-05-09T01:38:35.442Z,5.35714
2023-05-09T01:39:36.107Z,5.14286
2023-05-09T01:40:36.499Z,5.21429
2023-05-09T01:41:36.927Z,5.21429
2023-05-09T01:42:37.476Z,5.21429
2023-05-09T01:43:38.232Z,5.42857
2023-05-09T01:44:38.474Z,5.14286
2023-05-09T01:45:39.173Z,5.21429
2023-05-09T01:46:40.012Z,4.92857
2023-05-09T01:47:40.522Z,5
2023-05-09T01:48:40.927Z,5.42857
2023-05-09T01:49:41.550Z,4.92857
2023-05-09T01:50:42.243Z,5
2023-05-09T01:51:43.936Z,5
2023-05-09T01:52:43.460Z,5
2023-05-09T01:53:44.024Z,5.5
2023-05-09T01:54:44.553Z,5.14286
2023-05-09T01:55:45.039Z,5.42857
2023-05-09T01:56:45.508Z,5
2023-05-09T01:57:45.985Z,4.92857
2023-05-09T01:58:46.733Z,5.5
2023-05-09T01:59:47.132Z,5.35714
2023-05-09T02:00:47.907Z,4.71429
2023-05-09T02:01:48.574Z,4.92857
2023-05-09T02:02:49.438Z,5.14286
2023-05-09T02:03:50.152Z,5.42857
2023-05-09T02:04:50.895Z,5.42857
2023-05-09T02:05:51.679Z,5.14286
2023-05-09T02:06:52.468Z,5.21429
2023-05-09T02:07:53.058Z,5.14286
2023-05-09T02:08:53.929Z,4.85714
2023-05-09T02:09:54.824Z,4.92857
2023-05-09T02:10:55.714Z,5
2023-05-09T02:11:56.546Z,5.14286
2023-05-09T02:12:57.280Z,5.21429
2023-05-09T02:13:57.962Z,4.64286
2023-05-09T02:14:58.920Z,5
2023-05-09T02:15:59.681Z,5.14286
2023-05-09T02:17:00.752Z,4.85714
2023-05-09T02:18:01.586Z,4.85714
2023-05-09T02:19:02.554Z,4.71429
2023-05-09T02:20:02.574Z,5
2023-05-09T02:21:02.744Z,5.14286
2023-05-09T02:22:03.655Z,4.64286
2023-05-09T02:23:04.541Z,4.85714
2023-05-09T02:24:05.479Z,4.71429
2023-05-09T02:25:06.300Z,4.64286
2023-05-09T02:26:06.312Z,5
2023-05-09T02:27:06.532Z,4.85714
2023-05-09T02:28:07.472Z,4.71429
2023-05-09T02:29:07.588Z,5.14286
2023-05-09T02:30:08.551Z,4.5
2023-05-09T02:31:09.565Z,4.64286
2023-05-09T02:32:10.363Z,4.71429
2023-05-09T02:33:10.342Z,4.85714
2023-05-09T02:34:11.191Z,4.42857
2023-05-09T02:35:12.368Z,4.64286
2023-05-09T02:36:13.057Z,4.71429
2023-05-09T02:37:13.148Z,4.5
2023-05-09T02:38:13.797Z,4.64286
2023-05-09T02:39:14.456Z,4.85714
2023-05-09T02:40:15.114Z,4.5
2023-05-09T02:41:15.787Z,4.92857
2023-05-09T02:42:16.360Z,4.92857
2023-05-09T02:43:16.932Z,4.5
2023-05-09T02:44:17.864Z,4.35714
2023-05-09T02:45:18.525Z,4.85714
2023-05-09T02:46:19.386Z,4.71429
2023-05-09T02:47:20.120Z,4.5
2023-05-09T02:48:20.638Z,4.71429
2023-05-09T02:49:31.602Z,5
2023-05-09T02:50:21.998Z,4.35714
2023-05-09T02:51:22.749Z,4.64286
2023-05-09T02:52:23.586Z,4.64286
2023-05-09T02:53:24.202Z,4.5
2023-05-09T02:54:24.851Z,4.64286
2023-05-09T02:55:25.524Z,4.71429
2023-05-09T02:56:26.350Z,4.35714
2023-05-09T02:57:27.039Z,4.42857
2023-05-09T02:58:27.737Z,4.64286
2023-05-09T02:59:28.571Z,4.5
2023-05-09T03:00:29.340Z,5.42857
2023-05-09T03:01:30.086Z,4.71429
2023-05-09T03:02:30.976Z,4.42857
2023-05-09T03:03:31.835Z,4.71429
2023-05-09T03:04:32.474Z,4.21429
2023-05-09T03:05:33.337Z,4.64286
2023-05-09T03:06:33.341Z,4.85714
2023-05-09T03:07:33.467Z,4.71429
2023-05-09T03:08:33.580Z,4.64286
2023-05-09T03:09:34.350Z,5
2023-05-09T03:10:35.122Z,4.92857
2023-05-09T03:11:36.044Z,4.21429
2023-05-09T03:12:36.878Z,5.14286
2023-05-09T03:13:37.762Z,4.42857
2023-05-09T03:14:38.562Z,4.64286
2023-05-09T03:15:38.727Z,4.42857
2023-05-09T03:16:39.617Z,4.64286
2023-05-09T03:17:40.576Z,4.5
2023-05-09T03:18:41.442Z,4.21429
2023-05-09T03:19:42.120Z,4.14286
2023-05-09T03:20:42.133Z,4.85714
2023-05-09T03:21:42.943Z,4.5
2023-05-09T03:22:42.926Z,4.71429
2023-05-09T03:23:43.911Z,4.35714
2023-05-09T03:24:59.241Z,4.42857
2023-05-09T03:26:45.533Z,4.71429
2023-05-09T03:27:46.277Z,4.71429
2023-05-09T03:28:46.384Z,4.71429
2023-05-09T03:29:47.122Z,4.5
2023-05-09T03:30:47.205Z,4.85714
2023-05-09T03:31:48.082Z,4.5
2023-05-09T03:32:48.869Z,5
2023-05-09T03:33:48.934Z,4.64286
2023-05-09T03:34:49.797Z,4.64286
2023-05-09T03:35:49.945Z,4.5
2023-05-09T03:36:50.064Z,4.42857
2023-05-09T03:37:50.971Z,4.21429
2023-05-09T03:38:51.961Z,4.42857
2023-05-09T03:39:52.829Z,4.14286
2023-05-09T03:40:52.904Z,5
2023-05-09T03:41:52.904Z,4.35714
2023-05-09T03:42:53.155Z,4.71429
2023-05-09T03:43:53.476Z,4.85714
2023-05-09T03:44:53.455Z,4.5
2023-05-09T03:45:53.547Z,4.64286
2023-05-09T03:46:54.561Z,4.42857
2023-05-09T03:47:54.626Z,4.64286
2023-05-09T03:48:54.721Z,4.35714
2023-05-09T03:49:54.858Z,4.5
2023-05-09T03:50:55.058Z,4.35714
2023-05-09T03:51:55.197Z,4.5
2023-05-09T03:52:55.593Z,4.35714
2023-05-09T03:53:56.096Z,4.85714
2023-05-09T03:54:56.500Z,4.5
2023-05-09T03:55:56.594Z,4.5
2023-05-09T03:56:56.729Z,4.35714
2023-05-09T03:57:56.989Z,4.42857
2023-05-09T03:58:57.326Z,4.64286
2023-05-09T03:59:57.590Z,4.14286
2023-05-09T04:00:57.968Z,4.42857
2023-05-09T04:01:58.499Z,4.14286
2023-05-09T04:02:59.069Z,4.35714
2023-05-09T04:03:59.314Z,3.92857
2023-05-09T04:04:59.633Z,4.85714
2023-05-09T04:05:59.852Z,4.42857
2023-05-09T04:07:00.700Z,4.35714
2023-05-09T04:08:01.219Z,4.21429
2023-05-09T04:09:01.661Z,4.92857
2023-05-09T04:10:02.096Z,4.5
2023-05-09T04:11:03.054Z,5.14286
2023-05-09T04:12:03.552Z,4.42857
2023-05-09T04:13:04.149Z,4.14286
2023-05-09T04:14:04.868Z,4.71429
2023-05-09T04:15:05.686Z,4.35714
2023-05-09T04:16:06.372Z,4.14286
2023-05-09T04:17:07.101Z,4.42857
2023-05-09T04:18:08.099Z,4.14286
2023-05-09T04:19:08.294Z,4.42857
2023-05-09T04:20:08.924Z,4.42857
2023-05-09T04:21:09.766Z,4.42857
2023-05-09T04:22:10.179Z,4.5
2023-05-09T04:23:10.986Z,4.71429
2023-05-09T04:24:12.027Z,4.85714
2023-05-09T04:25:13.008Z,4.35714
2023-05-09T04:26:13.340Z,4.35714
2023-05-09T04:27:14.112Z,4.42857
2023-05-09T04:28:14.726Z,4.42857
2023-05-09T04:29:15.153Z,4.64286
2023-05-09T04:30:15.888Z,5
2023-05-09T04:31:16.630Z,4.71429
2023-05-09T04:32:16.797Z,4.21429
2023-05-09T04:33:17.534Z,4.64286
2023-05-09T04:34:18.438Z,4.71429
2023-05-09T04:35:20.738Z,4.42857
2023-05-09T04:36:20.084Z,4.21429
2023-05-09T04:37:20.447Z,5
2023-05-09T04:38:20.613Z,4.64286
2023-05-09T04:39:21.782Z,4.92857
2023-05-09T04:40:21.639Z,4.42857
2023-05-09T04:41:22.083Z,4.85714
2023-05-09T04:42:22.353Z,4.64286
2023-05-09T04:43:23.210Z,4.92857
2023-05-09T04:44:23.375Z,5.14286
2023-05-09T04:45:23.658Z,4.5
2023-05-09T04:46:25.751Z,4.92857
2023-05-09T04:47:24.991Z,5.35714
2023-05-09T04:48:25.709Z,4.5
2023-05-09T04:49:26.217Z,4.42857
2023-05-09T04:50:26.954Z,4.71429
2023-05-09T04:51:27.956Z,4.85714
2023-05-09T04:52:28.757Z,5.14286
2023-05-09T04:53:28.883Z,4.71429
2023-05-09T04:54:29.895Z,4.85714
2023-05-09T04:55:30.230Z,4.85714
2023-05-09T04:56:30.364Z,4.5
2023-05-09T04:57:30.981Z,4.71429
2023-05-09T04:58:31.493Z,4.5
2023-05-09T04:59:32.353Z,4.5
2023-05-09T05:00:32.669Z,4.71429
2023-05-09T05:01:33.134Z,5.21429
2023-05-09T05:02:33.242Z,4.71429
2023-05-09T05:03:33.467Z,4.71429
2023-05-09T05:04:33.634Z,4.92857
2023-05-09T05:05:35.948Z,4.92857
2023-05-09T05:06:34.046Z,4.92857
2023-05-09T05:07:34.219Z,5.21429
2023-05-09T05:08:35.061Z,4.71429
2023-05-09T05:09:35.248Z,4.71429
2023-05-09T05:10:35.553Z,4.64286
2023-05-09T05:11:36.218Z,4.64286
2023-05-09T05:12:36.332Z,4.71429
2023-05-09T05:13:36.566Z,4.85714
2023-05-09T05:14:37.433Z,4.92857
2023-05-09T05:15:38.385Z,5
2023-05-09T05:16:39.118Z,4.92857
2023-05-09T05:17:39.744Z,4.92857
2023-05-09T05:18:40.591Z,4.92857
2023-05-09T05:19:41.463Z,5
2023-05-09T05:20:42.121Z,4.85714
2023-05-09T05:21:42.908Z,5.21429
2023-05-09T05:22:43.446Z,5.21429
2023-05-09T05:23:44.319Z,4.5
2023-05-09T05:24:44.999Z,4.42857
2023-05-09T05:25:45.647Z,4.71429
2023-05-09T05:26:46.001Z,4.71429
2023-05-09T05:27:46.310Z,5
2023-05-09T05:28:46.454Z,4.5
2023-05-09T05:29:46.704Z,5.14286
2023-05-09T05:30:46.995Z,5.21429
2023-05-09T05:31:47.154Z,4.42857
2023-05-09T05:32:47.951Z,4.85714
2023-05-09T05:33:48.163Z,4.71429
2023-05-09T05:34:49.008Z,5.21429
2023-05-09T05:35:49.696Z,4.92857
2023-05-09T05:36:50.329Z,5.14286
2023-05-09T05:37:51.723Z,4.92857
2023-05-09T05:38:51.500Z,4.71429
2023-05-09T05:39:52.337Z,4.92857
2023-05-09T05:40:53.056Z,5.64286
2023-05-09T05:41:53.819Z,5.21429
2023-05-09T05:42:54.532Z,5.35714
2023-05-09T05:43:54.684Z,4.71429
2023-05-09T05:44:55.508Z,4.5
2023-05-09T05:45:56.473Z,7.5
2023-05-09T05:46:56.545Z,6.92857
2023-05-09T05:47:56.713Z,5.92857
2023-05-09T05:48:56.970Z,5.92857
2023-05-09T05:49:57.746Z,6.14286
2023-05-09T05:50:58.469Z,7.21429
2023-05-09T05:51:58.574Z,6.42857
2023-05-09T05:52:58.761Z,5.21429
2023-05-09T05:53:59.108Z,4.5
2023-05-09T05:55:00.003Z,4.21429
2023-05-09T05:56:00.437Z,4.85714
2023-05-09T05:57:00.725Z,4.64286
2023-05-09T05:58:00.877Z,4.71429
2023-05-09T05:59:01.510Z,4.5
2023-05-09T06:00:02.260Z,4.21429
2023-05-09T06:01:02.327Z,3.64286
2023-05-09T06:02:02.786Z,4
2023-05-09T06:03:03.126Z,4.85714
2023-05-09T06:04:03.254Z,4.64286
2023-05-09T06:05:03.763Z,4.64286
2023-05-09T06:06:04.197Z,4.42857
2023-05-09T06:07:04.783Z,4.21429
2023-05-09T06:08:05.171Z,4.35714
2023-05-09T06:09:05.439Z,4.14286
2023-05-09T06:10:06.445Z,4.14286
2023-05-09T06:11:06.422Z,3.85714
2023-05-09T06:12:07.138Z,4.14286
2023-05-09T06:13:07.803Z,3.92857
2023-05-09T06:14:08.561Z,4.5
2023-05-09T06:15:09.350Z,3.71429
2023-05-09T06:16:18.641Z,4.35714
2023-05-09T06:17:09.902Z,4.14286
2023-05-09T06:18:10.520Z,3.92857
2023-05-09T06:19:11.246Z,4.14286
2023-05-09T06:20:11.677Z,3.64286
2023-05-09T06:21:12.430Z,3.5
2023-05-09T06:22:12.762Z,4.21429
2023-05-09T06:23:13.546Z,3.71429
2023-05-09T06:24:23.518Z,3.85714
2023-05-09T06:25:15.172Z,3.85714
2023-05-09T06:26:15.377Z,3.92857
2023-05-09T06:27:15.918Z,4
2023-05-09T06:28:16.742Z,3.71429
2023-05-09T06:29:17.556Z,3.85714
2023-05-09T06:30:25.619Z,3.71429
2023-05-09T06:31:18.863Z,4
2023-05-09T06:32:19.488Z,3.85714
2023-05-09T06:33:20.360Z,3.92857
2023-05-09T06:34:21.319Z,3.92857
2023-05-09T06:35:21.315Z,3.85714
2023-05-09T06:36:22.236Z,3.92857
2023-05-09T06:37:22.369Z,3.85714
2023-05-09T06:38:22.528Z,3.92857
2023-05-09T06:39:23.437Z,3.85714
2023-05-09T06:40:24.147Z,3.92857
2023-05-09T06:41:24.654Z,3.92857
2023-05-09T06:42:24.963Z,3.64286
2023-05-09T06:43:25.926Z,4
2023-05-09T06:44:26.854Z,3.64286
2023-05-09T06:45:27.375Z,3.5
2023-05-09T06:46:27.337Z,3.42857
2023-05-09T06:47:27.490Z,3.85714
2023-05-09T06:48:27.977Z,3.5
2023-05-09T06:49:28.122Z,3.71429
2023-05-09T06:50:29.773Z,3.71429
2023-05-09T06:51:28.965Z,3.71429
2023-05-09T06:52:29.252Z,3.35714
2023-05-09T06:53:30.195Z,3.64286
2023-05-09T06:54:30.584Z,3.64286
2023-05-09T06:55:31.107Z,3.71429
2023-05-09T06:56:31.507Z,3.14286
2023-05-09T06:57:31.700Z,3.71429
2023-05-09T06:58:32.544Z,3.21429
2023-05-09T06:59:33.115Z,3.85714
2023-05-09T07:00:33.199Z,3.64286
2023-05-09T07:01:33.983Z,3.71429
2023-05-09T07:02:34.817Z,3.71429
2023-05-09T07:03:35.684Z,3.92857
2023-05-09T07:04:36.694Z,3.85714
2023-05-09T07:05:37.202Z,3.71429
2023-05-09T07:06:37.934Z,3.71429
2023-05-09T07:07:38.196Z,3.64286
2023-05-09T07:08:38.363Z,3.85714
2023-05-09T07:09:38.999Z,3.5
2023-05-09T07:10:39.717Z,3.71429
2023-05-09T07:11:40.178Z,4.5
2023-05-09T07:12:40.362Z,3.92857
2023-05-09T07:13:40.378Z,3.85714
2023-05-09T07:14:40.721Z,3.64286
2023-05-09T07:15:48.496Z,3.85714
2023-05-09T07:16:41.270Z,3.71429
2023-05-09T07:17:41.281Z,3.85714
2023-05-09T07:18:41.448Z,3.5
2023-05-09T07:19:41.974Z,3.85714
2023-05-09T07:20:42.293Z,3.5
2023-05-09T07:21:43.244Z,4.42857
2023-05-09T07:22:43.432Z,3.64286
2023-05-09T07:23:43.873Z,4.14286
2023-05-09T07:24:44.106Z,4
2023-05-09T07:25:44.654Z,4.5
2023-05-09T07:26:45.405Z,4.14286
2023-05-09T07:27:46.132Z,4
2023-05-09T07:28:46.341Z,4.35714
2023-05-09T07:29:46.957Z,4
2023-05-09T07:30:47.334Z,3.71429
2023-05-09T07:31:47.850Z,3.85714
2023-05-09T07:32:48.879Z,4
2023-05-09T07:33:49.636Z,3.64286
2023-05-09T07:34:50.297Z,3.5
2023-05-09T07:35:50.800Z,3.85714
2023-05-09T07:36:51.036Z,3.92857
2023-05-09T07:37:51.545Z,3.85714
2023-05-09T07:38:52.302Z,4.21429
2023-05-09T07:39:53.304Z,3.85714
2023-05-09T07:40:54.295Z,4.14286
2023-05-09T07:41:54.644Z,4.21429
2023-05-09T07:42:55.403Z,4.14286
2023-05-09T07:43:55.415Z,4.14286
2023-05-09T07:44:55.718Z,3.92857
2023-05-09T07:45:57.080Z,4.14286
2023-05-09T07:46:57.663Z,3.71429
2023-05-09T07:47:57.739Z,3.92857
2023-05-09T07:48:57.664Z,3.5
2023-05-09T07:49:58.152Z,3.92857
2023-05-09T07:50:58.428Z,4.14286
2023-05-09T07:51:59.315Z,3.5
2023-05-09T07:53:00.134Z,4.14286
2023-05-09T07:54:00.602Z,4
2023-05-09T07:55:00.783Z,3.71429
2023-05-09T07:56:01.766Z,4.14286
2023-05-09T07:57:02.761Z,4
2023-05-09T07:58:02.846Z,3.5
2023-05-09T07:59:03.830Z,3.71429
2023-05-09T08:00:04.682Z,4
2023-05-09T08:01:04.883Z,4.21429
2023-05-09T08:02:05.071Z,66
2023-05-09T08:03:06.375Z,28.6429
2023-05-09T08:04:07.078Z,24.6429
2023-05-09T08:05:07.003Z,30.5
2023-05-09T08:06:08.167Z,20.2143
2023-05-09T08:07:09.194Z,23.8571
2023-05-09T08:08:09.451Z,25.8571
2023-05-09T08:09:09.660Z,24
2023-05-09T08:10:10.122Z,33.7143
2023-05-09T08:11:10.181Z,20.5
2023-05-09T08:12:10.350Z,19.9286
2023-05-09T08:13:10.621Z,18.8571
2023-05-09T08:14:10.917Z,10.5
2023-05-09T08:15:11.398Z,15.6429
2023-05-09T08:16:11.566Z,18.6429
2023-05-09T08:17:11.934Z,11.4286
2023-05-09T08:18:12.913Z,16.3571
2023-05-09T08:19:13.504Z,14.8571
2023-05-09T08:20:13.731Z,19.1429
2023-05-09T08:21:14.677Z,12.4286
2023-05-09T08:22:15.534Z,11.9286
2023-05-09T08:23:16.162Z,22
2023-05-09T08:24:16.920Z,23.1429
2023-05-09T08:25:18.074Z,12.1429
2023-05-09T08:26:18.980Z,18.7143
2023-05-09T08:27:19.906Z,22.6429
2023-05-09T08:28:20.906Z,23.6429
2023-05-09T08:29:21.562Z,24.8571
2023-05-09T08:30:22.059Z,16.4286
2023-05-09T08:31:22.638Z,13.3571
2023-05-09T08:32:23.227Z,16.7143
2023-05-09T08:33:23.846Z,17.7143
2023-05-09T08:34:24.476Z,10.2143
2023-05-09T08:35:25.176Z,11.6429
2023-05-09T08:36:25.941Z,13.5
2023-05-09T08:37:26.733Z,8.92857
2023-05-09T08:38:27.892Z,7.92857
2023-05-09T08:39:28.311Z,10
2023-05-09T08:40:29.266Z,11.2143
2023-05-09T08:41:29.558Z,9.5
2023-05-09T08:42:30.510Z,9.35714
2023-05-09T08:43:31.570Z,6.71429
2023-05-09T08:44:32.398Z,9.21429
2023-05-09T08:45:32.890Z,6.92857
2023-05-09T08:46:33.920Z,10.3571
2023-05-09T08:47:34.364Z,8.35714
2023-05-09T08:48:35.992Z,8.92857
2023-05-09T08:49:35.272Z,9.71429
2023-05-09T08:50:36.384Z,8.64286
2023-05-09T08:51:37.096Z,5.42857
2023-05-09T08:52:37.880Z,6.42857
2023-05-09T08:53:38.237Z,9.35714
2023-05-09T08:54:39.224Z,9
2023-05-09T08:55:40.149Z,8.92857
2023-05-09T08:56:40.217Z,12.3571
2023-05-09T08:57:40.749Z,17.8571
2023-05-09T08:58:40.811Z,19.7143
2023-05-09T08:59:41.843Z,13.4286
2023-05-09T09:00:42.451Z,20.5
2023-05-09T09:01:43.326Z,13.5
2023-05-09T09:02:43.705Z,15.5
2023-05-09T09:03:44.302Z,23.9286
2023-05-09T09:04:45.222Z,18.9286
2023-05-09T09:05:45.831Z,29
2023-05-09T09:06:46.651Z,18.8571
2023-05-09T09:07:46.674Z,12.1429
2023-05-09T09:08:46.970Z,7.85714
2023-05-09T09:09:47.710Z,3.64286
2023-05-09T09:10:48.731Z,3.64286
2023-05-09T09:11:48.766Z,3.64286
2023-05-09T09:12:50.357Z,3.64286
2023-05-09T09:13:50.083Z,3.64286
2023-05-09T09:14:50.605Z,3.71429
2023-05-09T09:15:50.735Z,4
2023-05-09T09:16:51.246Z,3.71429
2023-05-09T09:17:52.259Z,3.64286
2023-05-09T09:18:52.675Z,3.85714
2023-05-09T09:19:52.724Z,4.21429
2023-05-09T09:20:53.562Z,3.92857
2023-05-09T09:21:53.796Z,3.64286
2023-05-09T09:22:54.636Z,4.14286
2023-05-09T09:23:55.125Z,3.92857
2023-05-09T09:24:55.577Z,3.42857
2023-05-09T09:25:57.910Z,3.42857
2023-05-09T09:26:57.678Z,3.71429
2023-05-09T09:27:58.670Z,3.85714
2023-05-09T09:28:58.912Z,3.92857
2023-05-09T09:29:59.930Z,3.64286
2023-05-09T09:30:59.912Z,3.71429
2023-05-09T09:32:00.204Z,3.42857
2023-05-09T09:33:00.774Z,3.64286
2023-05-09T09:34:00.800Z,3.85714
2023-05-09T09:35:01.328Z,3.5
2023-05-09T09:36:02.378Z,3.64286
2023-05-09T09:37:03.034Z,3.5
2023-05-09T09:38:03.328Z,3.85714
2023-05-09T09:39:03.600Z,3.92857
2023-05-09T09:40:03.741Z,3.85714
2023-05-09T09:41:04.499Z,3.64286
2023-05-09T09:42:04.986Z,4.21429
2023-05-09T09:43:05.734Z,3.92857
2023-05-09T09:44:07.403Z,3.92857
2023-05-09T09:45:07.540Z,3.42857
2023-05-09T09:46:08.677Z,4
2023-05-09T09:47:09.654Z,3.71429
2023-05-09T09:48:09.959Z,3.85714
2023-05-09T09:49:10.993Z,3.5
2023-05-09T09:50:11.193Z,3
2023-05-09T09:51:11.968Z,4
2023-05-09T09:52:11.846Z,4.35714
2023-05-09T09:53:12.146Z,4
2023-05-09T09:54:12.257Z,3.71429
2023-05-09T09:55:12.900Z,3.64286
2023-05-09T09:56:13.569Z,3.71429
2023-05-09T09:57:13.773Z,3.92857
2023-05-09T09:58:13.867Z,3.42857
2023-05-09T09:59:14.060Z,3.42857
2023-05-09T10:00:14.379Z,3.64286
2023-05-09T10:01:14.880Z,3.92857
2023-05-09T10:02:15.206Z,3.42857
2023-05-09T10:03:15.527Z,3.5
2023-05-09T10:04:16.532Z,3.42857
2023-05-09T10:05:17.195Z,3.5
2023-05-09T10:06:17.624Z,3.71429
2023-05-09T10:07:17.961Z,3.5
2023-05-09T10:08:18.741Z,3.5
2023-05-09T10:09:19.736Z,3.64286
2023-05-09T10:10:20.102Z,3.35714
2023-05-09T10:11:21.023Z,3.21429
2023-05-09T10:12:21.568Z,3.5
2023-05-09T10:13:22.051Z,3.42857
2023-05-09T10:14:22.924Z,5.64286
2023-05-09T10:15:22.983Z,8.14286
2023-05-09T10:16:31.956Z,3.21429
2023-05-09T10:17:24.089Z,3.21429
2023-05-09T10:18:24.904Z,3.14286
2023-05-09T10:19:25.588Z,3.21429
2023-05-09T10:20:26.170Z,3.5
2023-05-09T10:21:27.002Z,3.21429
2023-05-09T10:22:27.669Z,3.64286
2023-05-09T10:23:27.892Z,3.85714
2023-05-09T10:24:29.429Z,3.42857
2023-05-09T10:25:29.743Z,3.64286
2023-05-09T10:26:30.692Z,3.92857
2023-05-09T10:27:31.307Z,3.21429
2023-05-09T10:28:31.255Z,3.5
2023-05-09T10:29:31.366Z,3.64286
2023-05-09T10:30:33.952Z,3.64286
2023-05-09T10:31:31.942Z,3.85714
2023-05-09T10:32:31.988Z,3.64286
2023-05-09T10:33:32.639Z,3.42857
2023-05-09T10:34:33.062Z,3.21429
2023-05-09T10:35:33.528Z,3.64286
2023-05-09T10:36:34.073Z,3.64286
2023-05-09T10:37:34.282Z,3.64286
2023-05-09T10:38:35.422Z,3.5
2023-05-09T10:39:35.474Z,3.42857
2023-05-09T10:40:36.122Z,3.42857
2023-05-09T10:41:36.622Z,3
2023-05-09T10:42:37.559Z,3.42857
2023-05-09T10:43:38.259Z,3.64286
2023-05-09T10:44:38.922Z,3.85714
2023-05-09T10:45:39.548Z,3.92857
2023-05-09T10:46:39.672Z,3.64286
2023-05-09T10:47:39.861Z,3.35714
2023-05-09T10:48:40.343Z,3.85714
2023-05-09T10:49:40.638Z,3.42857
2023-05-09T10:50:41.701Z,3.71429
2023-05-09T10:51:42.134Z,4.14286
2023-05-09T10:52:42.822Z,3.35714
2023-05-09T10:53:42.907Z,3.35714
2023-05-09T10:54:43.177Z,3.5
2023-05-09T10:55:43.923Z,3.42857
2023-05-09T10:56:44.134Z,3.42857
2023-05-09T10:57:44.414Z,3.14286
2023-05-09T10:58:44.945Z,3.92857
2023-05-09T10:59:45.535Z,3.64286
2023-05-09T11:00:46.115Z,3.64286
2023-05-09T11:01:46.628Z,3.71429
2023-05-09T11:02:46.624Z,3.92857
2023-05-09T11:03:47.522Z,3.64286
2023-05-09T11:04:48.012Z,3.71429
2023-05-09T11:05:48.829Z,3.85714
2023-05-09T11:06:49.809Z,4.21429
2023-05-09T11:07:50.091Z,4.21429
2023-05-09T11:08:50.784Z,3.42857
2023-05-09T11:09:51.418Z,3.64286
2023-05-09T11:10:52.072Z,3.35714
2023-05-09T11:11:52.830Z,3.42857
2023-05-09T11:12:54.378Z,3.5
2023-05-09T11:13:53.284Z,3.42857
2023-05-09T11:14:54.067Z,4
2023-05-09T11:15:54.759Z,3.5
2023-05-09T11:16:54.982Z,3.85714
2023-05-09T11:17:55.955Z,3.71429
2023-05-09T11:18:56.010Z,3.71429
2023-05-09T11:19:56.110Z,3.42857
2023-05-09T11:20:56.321Z,3.71429
2023-05-09T11:21:56.695Z,3.92857
2023-05-09T11:22:56.759Z,3.42857
2023-05-09T11:23:57.952Z,3.5
2023-05-09T11:24:58.573Z,3.85714
2023-05-09T11:25:59.248Z,3.5
2023-05-09T11:26:59.613Z,3.64286
2023-05-09T11:28:00.340Z,3.5
2023-05-09T11:29:00.868Z,3.71429
2023-05-09T11:30:01.545Z,3.85714
2023-05-09T11:31:02.118Z,3.85714
2023-05-09T11:32:02.723Z,4
2023-05-09T11:33:03.174Z,3.71429
2023-05-09T11:34:04.064Z,3.92857
2023-05-09T11:35:04.899Z,3.85714
2023-05-09T11:36:05.110Z,3.92857
2023-05-09T11:37:06.088Z,3.64286
2023-05-09T11:38:06.817Z,3.5
2023-05-09T11:39:06.896Z,4
2023-05-09T11:40:07.099Z,3.85714
2023-05-09T11:41:08.041Z,4.71429
2023-05-09T11:42:08.450Z,3.71429
2023-05-09T11:43:08.520Z,3.71429
2023-05-09T11:44:09.616Z,3.85714
2023-05-09T11:45:09.821Z,3.92857
2023-05-09T11:46:10.310Z,3.71429
2023-05-09T11:47:10.397Z,3.71429
2023-05-09T11:48:11.314Z,3.71429
2023-05-09T11:49:12.270Z,3.5
2023-05-09T11:50:12.855Z,3.92857
2023-05-09T11:51:13.569Z,4.35714
2023-05-09T11:52:13.583Z,3.92857
2023-05-09T11:53:13.493Z,3.71429
2023-05-09T11:54:14.628Z,3.64286
2023-05-09T11:55:14.963Z,4.35714
2023-05-09T11:56:15.024Z,3.71429
2023-05-09T11:57:15.493Z,3.85714
2023-05-09T11:58:16.933Z,3.42857
2023-05-09T11:59:17.124Z,3.64286
2023-05-09T12:00:17.467Z,3.5
2023-05-09T12:01:17.862Z,3.5
2023-05-09T12:02:18.180Z,3.64286
2023-05-09T12:03:19.366Z,3.71429
2023-05-09T12:04:20.083Z,4
2023-05-09T12:05:20.652Z,4.21429
2023-05-09T12:06:21.597Z,3.64286
2023-05-09T12:07:22.534Z,3.85714
2023-05-09T12:08:23.240Z,3.85714
2023-05-09T12:09:24.365Z,3.92857
2023-05-09T12:10:25.492Z,4.5
2023-05-09T12:11:26.423Z,3.85714
2023-05-09T12:12:27.088Z,3.71429
2023-05-09T12:13:27.780Z,3.42857
2023-05-09T12:14:28.170Z,3.71429
2023-05-09T12:15:28.939Z,3.64286
2023-05-09T12:16:29.758Z,3.71429
2023-05-09T12:17:30.532Z,3.42857
2023-05-09T12:18:31.351Z,3.42857
2023-05-09T12:19:32.015Z,3.85714
2023-05-09T12:20:32.830Z,3.14286
2023-05-09T12:21:33.652Z,3.42857
2023-05-09T12:22:34.239Z,3.42857
2023-05-09T12:23:34.497Z,3.42857
2023-05-09T12:24:35.486Z,3.42857
2023-05-09T12:25:36.353Z,5.21429
2023-05-09T12:26:36.899Z,4.35714
2023-05-09T12:27:37.380Z,4.14286
2023-05-09T12:28:37.793Z,3.92857
2023-05-09T12:29:38.493Z,4
2023-05-09T12:30:39.096Z,3.92857
2023-05-09T12:31:40.006Z,3.92857
2023-05-09T12:32:40.877Z,3.5
2023-05-09T12:33:41.730Z,5.5